createdAt,value
2022-08-01T00:03:38.670Z,80.33
2022-08-01T00:08:41.935Z,80.41
2022-08-01T00:13:44.482Z,80.37
2022-08-01T00:18:47.399Z,80.72
2022-08-01T00:23:49.509Z,80.75
2022-08-01T00:28:52.291Z,80.49
2022-08-01T00:33:55.118Z,80.51
2022-08-01T00:38:58.072Z,80.32
2022-08-01T00:44:05.073Z,80.44
2022-08-01T00:49:10.633Z,80.82
2022-08-01T00:54:16.641Z,80.67
2022-08-01T00:59:22.839Z,81.23
2022-08-01T01:04:26.502Z,81.03
2022-08-01T01:10:06.859Z,81.11
2022-08-01T01:15:37.301Z,81.28
2022-08-01T01:20:47.265Z,81.26
2022-08-01T01:26:09.043Z,81.06
2022-08-01T01:31:14.425Z,80.95
2022-08-01T01:36:19.160Z,80.80
2022-08-01T01:41:23.650Z,81.27
2022-08-01T01:46:29.529Z,81.38
2022-08-01T01:51:32.305Z,81.77
2022-08-01T01:56:36.412Z,81.74
2022-08-01T02:02:05.508Z,81.71
2022-08-01T02:07:05.088Z,81.83
2022-08-01T02:12:11.546Z,81.88
2022-08-01T02:17:19.066Z,82.05
2022-08-01T02:22:33.514Z,81.97
2022-08-01T02:27:45.131Z,82.04
2022-08-01T02:32:51.157Z,81.85
2022-08-01T02:37:56.126Z,82.29
2022-08-01T02:43:01.225Z,82.69
2022-08-01T02:48:10.739Z,82.65
2022-08-01T02:53:15.627Z,82.35
2022-08-01T02:58:21.069Z,82.54
2022-08-01T03:03:32.607Z,82.67
2022-08-01T03:08:36.837Z,83.04
2022-08-01T03:13:41.131Z,83.08
2022-08-01T03:18:46.501Z,83.05
2022-08-01T03:23:55.088Z,82.62
2022-08-01T03:29:03.378Z,82.54
2022-08-01T03:34:07.737Z,82.33
2022-08-01T03:39:12.431Z,82.54
2022-08-01T03:44:18.937Z,82.70
2022-08-01T03:49:26.533Z,82.73
2022-08-01T03:54:34.692Z,83.06
2022-08-01T03:59:38.787Z,83.66
2022-08-01T04:04:42.682Z,83.12
2022-08-01T04:09:45.963Z,83.24
2022-08-01T04:14:49.572Z,83.35
2022-08-01T04:19:52.798Z,83.64
2022-08-01T04:24:58.426Z,83.01
2022-08-01T04:30:01.829Z,83.08
2022-08-01T04:35:34.857Z,83.30
2022-08-01T04:40:31.520Z,83.41
2022-08-01T04:45:35.660Z,82.65
2022-08-01T04:50:38.638Z,82.28
2022-08-01T04:55:41.560Z,81.94
2022-08-01T05:00:43.834Z,81.05
2022-08-01T05:05:47.284Z,80.68
2022-08-01T05:10:50.775Z,81.19
2022-08-01T05:15:54.474Z,81.51
2022-08-01T05:20:58.860Z,80.85
2022-08-01T05:26:02.312Z,78.91
2022-08-01T05:31:07.477Z,74.62
2022-08-01T05:36:11.397Z,70.60
2022-08-01T05:41:14.814Z,65.65
2022-08-01T05:46:18.941Z,61.22
2022-08-01T05:51:21.978Z,56.73
2022-08-01T05:56:28.321Z,53.30
2022-08-01T06:01:44.912Z,49.62
2022-08-01T06:06:49.378Z,48.56
2022-08-01T06:11:54.301Z,47.69
2022-08-01T06:16:59.945Z,47.06
2022-08-01T06:22:03.601Z,46.03
2022-08-01T06:27:06.253Z,46.72
2022-08-01T06:32:26.972Z,48.71
2022-08-01T06:37:33.599Z,50.47
2022-08-01T06:42:37.056Z,52.45
2022-08-01T06:47:41.551Z,54.48
2022-08-01T06:52:44.004Z,55.48
2022-08-01T06:57:51.289Z,57.17
2022-08-01T07:02:56.802Z,57.09
2022-08-01T07:08:00.891Z,57.93
2022-08-01T07:13:08.258Z,57.19
2022-08-01T07:18:11.571Z,56.84
2022-08-01T07:23:14.690Z,54.97
2022-08-01T07:28:18.047Z,53.87
2022-08-01T07:33:21.466Z,53.68
2022-08-01T07:38:25.247Z,54.03
2022-08-01T07:43:27.948Z,54.02
2022-08-01T07:48:30.347Z,54.44
2022-08-01T07:53:33.001Z,55.05
2022-08-01T07:58:35.693Z,54.98
2022-08-01T08:03:37.950Z,55.15
2022-08-01T08:08:40.794Z,54.67
2022-08-01T08:13:42.852Z,54.57
2022-08-01T08:18:45.204Z,54.61
2022-08-01T08:24:06.410Z,54.10
2022-08-01T08:29:09.145Z,53.59
2022-08-01T08:34:12.862Z,54.06
2022-08-01T08:39:15.500Z,54.53
2022-08-01T08:44:23.072Z,54.35
2022-08-01T08:49:36.184Z,54.85
2022-08-01T08:54:41.954Z,54.91
2022-08-01T08:59:45.343Z,54.17
2022-08-01T09:04:50.428Z,54.01
2022-08-01T09:09:54.214Z,53.64
2022-08-01T09:14:58.025Z,52.48
2022-08-01T09:20:00.387Z,52.90
2022-08-01T09:25:09.271Z,51.91
2022-08-01T09:30:23.479Z,51.80
2022-08-01T09:35:31.860Z,52.10
2022-08-01T09:41:05.099Z,52.42
2022-08-01T09:46:14.828Z,51.56
2022-08-01T09:51:58.971Z,50.88
2022-08-01T09:56:55.181Z,51.32
2022-08-01T10:01:58.313Z,51.37
2022-08-01T10:07:08.991Z,50.36
2022-08-01T10:12:21.261Z,50.13
2022-08-01T10:17:50.632Z,50.15
2022-08-01T10:22:50.451Z,50.34
2022-08-01T10:27:55.869Z,50.04
2022-08-01T10:32:59.293Z,48.68
2022-08-01T10:38:02.146Z,49.10
2022-08-01T10:43:11.961Z,48.97
2022-08-01T10:48:52.572Z,49.59
2022-08-01T10:54:00.750Z,49.78
2022-08-01T10:59:06.695Z,50.91
2022-08-01T11:04:18.479Z,50.64
2022-08-01T11:09:37.552Z,51.04
2022-08-01T11:15:17.728Z,51.33
2022-08-01T11:20:41.587Z,51.24
2022-08-01T11:26:03.493Z,51.45
2022-08-01T11:31:14.404Z,51.66
2022-08-01T11:36:17.022Z,51.25
2022-08-01T11:41:37.964Z,51.38
2022-08-01T11:47:01.614Z,50.80
2022-08-01T11:52:09.495Z,50.89
2022-08-01T11:57:15.576Z,50.96
2022-08-01T12:02:30.495Z,50.40
2022-08-01T12:07:35.153Z,50.11
2022-08-01T12:12:43.099Z,50.08
2022-08-01T12:17:58.367Z,49.52
2022-08-01T12:23:10.513Z,49.48
2022-08-01T12:28:15.928Z,49.03
2022-08-01T12:33:21.519Z,49.51
2022-08-01T12:38:25.699Z,49.01
2022-08-01T12:43:32.430Z,49.09
2022-08-01T12:48:35.279Z,48.20
2022-08-01T12:53:40.491Z,47.92
2022-08-01T12:58:44.748Z,48.19
2022-08-01T13:04:05.323Z,48.81
2022-08-01T13:09:12.572Z,48.51
2022-08-01T13:14:28.871Z,48.44
2022-08-01T13:19:45.604Z,48.30
2022-08-01T13:24:47.781Z,47.61
2022-08-01T13:29:54.763Z,47.66
2022-08-01T13:35:06.001Z,47.31
2022-08-01T13:40:10.094Z,47.55
2022-08-01T13:45:15.022Z,47.89
2022-08-01T13:50:18.258Z,48.16
2022-08-01T13:55:22.919Z,48.24
2022-08-01T14:00:25.881Z,47.96
2022-08-01T14:05:28.810Z,48.02
2022-08-01T14:10:31.977Z,48.34
2022-08-01T14:15:38.216Z,49.19
2022-08-01T14:20:44.002Z,49.18
2022-08-01T14:26:04.102Z,49.07
2022-08-01T14:31:09.096Z,49.76
2022-08-01T14:36:29.014Z,49.68
2022-08-01T14:41:33.459Z,49.55
2022-08-01T14:46:35.788Z,49.19
2022-08-01T14:51:39.094Z,50.68
2022-08-01T14:56:40.814Z,51.45
2022-08-01T15:01:43.544Z,51.79
2022-08-01T15:06:45.935Z,51.61
2022-08-01T15:11:48.455Z,51.38
2022-08-01T15:16:51.709Z,50.76
2022-08-01T15:21:54.743Z,50.88
2022-08-01T15:26:57.409Z,50.20
2022-08-01T15:32:04.769Z,50.01
2022-08-01T15:37:08.283Z,49.67
2022-08-01T15:42:14.136Z,49.52
2022-08-01T15:47:25.157Z,49.88
2022-08-01T15:52:32.022Z,50.18
2022-08-01T15:57:35.749Z,51.10
2022-08-01T16:02:42.242Z,52.17
2022-08-01T16:07:59.787Z,52.78
2022-08-01T16:13:06.969Z,54.03
2022-08-01T16:18:15.647Z,54.86
2022-08-01T16:23:18.013Z,55.51
2022-08-01T16:28:21.051Z,56.31
2022-08-01T16:33:49.622Z,57.27
2022-08-01T16:38:46.075Z,57.55
2022-08-01T16:43:54.027Z,58.50
2022-08-01T16:48:57.321Z,59.10
2022-08-01T16:54:01.575Z,59.46
2022-08-01T16:59:05.505Z,59.99
2022-08-01T17:04:10.989Z,60.36
2022-08-01T17:09:14.563Z,60.47
2022-08-01T17:14:17.856Z,59.26
2022-08-01T17:19:20.486Z,58.91
2022-08-01T17:24:35.677Z,58.13
2022-08-01T17:29:43.329Z,58.14
2022-08-01T17:34:47.210Z,58.19
2022-08-01T17:39:50.130Z,58.40
2022-08-01T17:44:54.233Z,58.77
2022-08-01T17:50:04.235Z,59.22
2022-08-01T17:55:53.432Z,59.22
2022-08-01T18:00:31.317Z,59.51
2022-08-01T18:05:36.945Z,59.96
2022-08-01T18:10:40.296Z,60.27
2022-08-01T18:15:44.963Z,60.51
2022-08-01T18:20:48.571Z,60.84
2022-08-01T18:25:51.337Z,61.16
2022-08-01T18:30:53.643Z,61.65
2022-08-01T18:36:01.623Z,62.28
2022-08-01T18:41:10.086Z,62.58
2022-08-01T18:46:12.807Z,63.14
2022-08-01T18:51:15.707Z,63.36
2022-08-01T18:56:19.938Z,63.77
2022-08-01T19:01:23.407Z,64.24
2022-08-01T19:06:27.461Z,64.76
2022-08-01T19:11:36.430Z,65.28
2022-08-01T19:16:39.468Z,65.86
2022-08-01T19:21:44.930Z,66.14
2022-08-01T19:26:52.517Z,66.48
2022-08-01T19:31:57.229Z,66.83
2022-08-01T19:37:00.023Z,67.11
2022-08-01T19:42:03.752Z,67.50
2022-08-01T19:47:06.331Z,67.63
2022-08-01T19:52:09.744Z,67.88
2022-08-01T19:57:15.625Z,68.21
2022-08-01T20:02:22.101Z,68.38
2022-08-01T20:07:24.211Z,68.34
2022-08-01T20:12:28.335Z,68.38
2022-08-01T20:17:31.096Z,68.73
2022-08-01T20:22:35.501Z,68.88
2022-08-01T20:27:40.246Z,68.86
2022-08-01T20:32:43.667Z,68.86
2022-08-01T20:38:04.113Z,69.00
2022-08-01T20:43:10.112Z,69.14
2022-08-01T20:48:15.205Z,69.03
2022-08-01T20:53:18.209Z,69.20
2022-08-01T20:58:46.299Z,69.95
2022-08-01T21:04:03.492Z,70.30
2022-08-01T21:09:06.308Z,70.72
2022-08-01T21:14:12.970Z,71.18
2022-08-01T21:19:21.997Z,71.49
2022-08-01T21:24:28.735Z,71.73
2022-08-01T21:29:32.633Z,71.83
2022-08-01T21:34:38.129Z,71.87
2022-08-01T21:39:43.035Z,71.91
2022-08-01T21:44:47.251Z,71.96
2022-08-01T21:49:49.574Z,72.18
2022-08-01T21:55:10.760Z,72.10
2022-08-01T22:00:26.207Z,72.43
2022-08-01T22:05:50.651Z,72.42
2022-08-01T22:10:59.954Z,72.16
2022-08-01T22:16:05.280Z,72.13
2022-08-01T22:21:08.322Z,72.30
2022-08-01T22:26:12.745Z,72.53
2022-08-01T22:31:16.221Z,72.67
2022-08-01T22:36:20.343Z,72.96
2022-08-01T22:42:01.410Z,73.02
2022-08-01T22:47:03.215Z,73.33
2022-08-01T22:52:37.771Z,74.02
2022-08-01T22:58:01.777Z,74.42
2022-08-01T23:03:16.411Z,74.57
2022-08-01T23:08:20.919Z,74.65
2022-08-01T23:13:24.542Z,74.75
2022-08-01T23:18:28.946Z,74.57
2022-08-01T23:23:33.459Z,74.70
2022-08-01T23:28:39.598Z,74.92
2022-08-01T23:33:41.870Z,74.90
2022-08-01T23:38:45.384Z,75.25
2022-08-01T23:43:52.343Z,74.97
2022-08-01T23:48:55.166Z,75.35
2022-08-01T23:53:58.362Z,75.37
2022-08-01T23:59:02.070Z,75.30
